Time;durP1;ratioP1;P1;durP2;ratioP2;P2;SDS_P1;SDS_P2;PMS_P1;PMS_P2;Temp;Humidity;BMP_temperature;BMP_pressure;BME280_temperature;BME280_humidity;BME280_pressure;Samples;Min_cycle;Max_cycle;Signal;HPM_P1;HPM_P2
2021/09/19 00:02:10;;;;;;;36.45;33.85;;;;;;;17.33;100.00;100743.25;5081394;28;20048;-79
2021/09/19 00:04:37;;;;;;;43.97;41.17;;;;;;;16.78;100.00;100749.50;5075237;28;20048;-80
2021/09/19 00:07:04;;;;;;;40.92;38.00;;;;;;;17.74;100.00;100751.78;5072920;28;20056;-79
2021/09/19 00:09:32;;;;;;;36.13;33.53;;;;;;;17.22;100.00;100746.91;5074525;28;20052;-80
2021/09/19 00:11:59;;;;;;;36.03;33.53;;;;;;;17.61;100.00;100741.47;5074473;28;20056;-79
2021/09/19 00:14:26;;;;;;;35.42;32.88;;;;;;;18.32;100.00;100746.72;5074040;28;20412;-79
2021/09/19 00:16:53;;;;;;;41.03;38.25;;;;;;;17.82;100.00;100747.84;5074144;28;20129;-81
2021/09/19 00:19:20;;;;;;;37.78;35.08;;;;;;;18.37;100.00;100752.16;5074233;28;20041;-79
2021/09/19 00:21:47;;;;;;;34.67;31.92;;;;;;;17.10;100.00;100752.38;5075070;28;20070;-79
2021/09/19 00:24:14;;;;;;;35.40;32.50;;;;;;;17.12;100.00;100763.66;5073770;28;20063;-79
2021/09/19 00:26:42;;;;;;;34.35;31.88;;;;;;;17.59;100.00;100757.00;5074358;28;20044;-79
2021/09/19 00:29:09;;;;;;;33.72;31.42;;;;;;;18.97;100.00;100759.03;5074370;28;20056;-79
2021/09/19 00:31:36;;;;;;;41.95;39.40;;;;;;;16.90;100.00;100760.13;5072920;28;20048;-80
2021/09/19 00:34:03;;;;;;;37.15;34.55;;;;;;;16.89;100.00;100762.00;5073719;28;20049;-80
2021/09/19 00:36:29;;;;;;;35.97;33.38;;;;;;;17.35;100.00;100764.50;5072687;28;20052;-81
2021/09/19 00:38:56;;;;;;;36.13;33.33;;;;;;;18.35;100.00;100773.09;5073041;28;20401;-78
2021/09/19 00:41:23;;;;;;;35.55;32.83;;;;;;;17.18;100.00;100775.28;5074424;28;20048;-80
2021/09/19 00:43:51;;;;;;;34.78;32.30;;;;;;;17.65;100.00;100773.97;5072872;28;20397;-79
2021/09/19 00:46:18;;;;;;;34.42;32.00;;;;;;;17.29;100.00;100774.34;5073279;28;20119;-78
2021/09/19 00:48:45;;;;;;;35.28;32.70;;;;;;;18.23;100.00;100775.94;5072741;28;20477;-80
2021/09/19 00:51:12;;;;;;;35.65;33.10;;;;;;;17.69;100.00;100772.41;5073165;28;20061;-78
2021/09/19 00:53:39;;;;;;;34.92;32.53;;;;;;;17.59;100.00;100771.22;5071531;28;20044;-79
2021/09/19 00:56:08;;;;;;;35.75;33.35;;;;;;;16.67;100.00;100786.06;5072281;28;20048;-79
2021/09/19 00:58:35;;;;;;;37.90;35.30;;;;;;;18.02;100.00;100774.13;5073874;28;20060;-79
2021/09/19 01:01:04;;;;;;;34.83;32.53;;;;;;;16.91;100.00;100789.41;5067607;28;20121;-79
2021/09/19 01:03:31;;;;;;;33.40;30.85;;;;;;;17.22;100.00;100778.28;5095106;28;20076;-79
2021/09/19 01:05:59;;;;;;;35.35;33.03;;;;;;;16.76;100.00;100781.13;5096246;28;20048;-79
2021/09/19 01:08:27;;;;;;;33.80;31.20;;;;;;;17.27;100.00;100781.03;5098220;28;20470;-79
2021/09/19 01:10:54;;;;;;;34.65;31.95;;;;;;;16.63;100.00;100792.97;5097412;28;20077;-80
2021/09/19 01:13:21;;;;;;;34.33;31.92;;;;;;;16.48;100.00;100785.47;5096860;28;20052;-79
2021/09/19 01:15:50;;;;;;;34.17;31.88;;;;;;;16.64;100.00;100786.56;5096651;28;20112;-79
2021/09/19 01:18:19;;;;;;;38.25;35.53;;;;;;;17.24;100.00;100776.97;5097180;28;20147;-79
2021/09/19 01:20:47;;;;;;;34.65;32.05;;;;;;;16.59;100.00;100778.44;5096968;28;20040;-81
2021/09/19 01:23:15;;;;;;;36.13;33.83;;;;;;;16.80;100.00;100781.47;5095654;28;20450;-81
2021/09/19 01:25:45;;;;;;;38.35;35.72;;;;;;;16.60;100.00;100780.03;5096798;28;20129;-80
2021/09/19 01:28:13;;;;;;;37.80;35.40;;;;;;;17.09;100.00;100777.56;5097525;28;20127;-79
2021/09/19 01:30:40;;;;;;;34.42;32.03;;;;;;;16.14;100.00;100791.88;5097013;28;20058;-79
2021/09/19 01:33:08;;;;;;;36.60;33.95;;;;;;;16.37;100.00;100788.22;5097654;28;20059;-79
2021/09/19 01:35:35;;;;;;;36.65;34.15;;;;;;;16.49;100.00;100787.13;5096619;28;20063;-78
2021/09/19 01:38:03;;;;;;;38.40;35.80;;;;;;;17.59;100.00;100787.34;5097164;28;20048;-83
2021/09/19 01:40:30;;;;;;;35.85;33.53;;;;;;;16.33;100.00;100787.91;5097774;28;20132;-79
2021/09/19 01:42:59;;;;;;;35.20;32.53;;;;;;;16.28;100.00;100795.88;5096885;28;20055;-79
2021/09/19 01:45:26;;;;;;;35.60;33.00;;;;;;;16.15;100.00;100791.63;5095664;28;20044;-80
2021/09/19 01:47:53;;;;;;;36.83;34.28;;;;;;;16.20;100.00;100790.91;5097252;28;20051;-78
2021/09/19 01:50:21;;;;;;;35.63;33.13;;;;;;;16.36;100.00;100790.09;5096654;28;20455;-80
2021/09/19 01:52:48;;;;;;;34.67;32.17;;;;;;;16.07;100.00;100785.84;5095868;28;20556;-79
2021/09/19 01:55:15;;;;;;;33.17;30.98;;;;;;;16.26;100.00;100784.59;5096758;28;20048;-80
2021/09/19 01:57:42;;;;;;;32.38;30.08;;;;;;;16.00;100.00;100789.47;5095499;28;20129;-78
2021/09/19 02:02:48;;;;;;;34.67;32.13;;;;;;;16.24;100.00;100794.72;5064497;23;20425;-79
2021/09/19 02:05:15;;;;;;;34.42;31.92;;;;;;;15.92;100.00;100791.75;5023249;28;20128;-77
2021/09/19 02:07:42;;;;;;;33.00;30.40;;;;;;;16.24;100.00;100792.03;5032381;28;20378;-78
2021/09/19 02:10:11;;;;;;;33.03;30.52;;;;;;;15.86;100.00;100785.47;5028557;28;20131;-79
2021/09/19 02:12:40;;;;;;;31.27;28.58;;;;;;;15.91;100.00;100784.75;5028161;28;20050;-81
2021/09/19 02:15:09;;;;;;;36.70;34.00;;;;;;;16.10;100.00;100777.34;5020509;28;20119;-82
2021/09/19 02:17:36;;;;;;;37.33;34.33;;;;;;;16.24;100.00;100784.81;5025085;28;20486;-78
2021/09/19 02:20:06;;;;;;;35.85;33.45;;;;;;;15.92;100.00;100781.84;5022274;28;20123;-79
2021/09/19 02:22:33;;;;;;;35.03;32.17;;;;;;;16.15;100.00;100783.56;5022868;28;20139;-79
2021/09/19 02:24:59;;;;;;;34.42;32.03;;;;;;;16.29;100.00;100786.78;5023429;28;20050;-80
2021/09/19 02:27:27;;;;;;;34.35;31.75;;;;;;;16.09;100.00;100784.53;5024111;28;20120;-78
2021/09/19 02:29:54;;;;;;;32.60;30.25;;;;;;;15.77;100.00;100784.22;5024896;28;20050;-79
2021/09/19 02:32:21;;;;;;;35.53;33.05;;;;;;;15.74;100.00;100782.84;5023597;28;20553;-79
2021/09/19 02:34:47;;;;;;;33.80;31.50;;;;;;;15.68;100.00;100780.31;5026592;28;20410;-78
2021/09/19 02:37:16;;;;;;;32.33;30.02;;;;;;;15.69;100.00;100781.91;5024360;28;20478;-79
2021/09/19 02:39:43;;;;;;;33.05;30.85;;;;;;;15.75;100.00;100778.28;5025108;28;20445;-79
2021/09/19 02:42:09;;;;;;;34.97;32.40;;;;;;;18.11;100.00;100769.91;5032778;28;20497;-79
2021/09/19 02:44:36;;;;;;;34.35;32.10;;;;;;;16.32;100.00;100774.75;5022138;28;20108;-80
2021/09/19 02:47:03;;;;;;;35.72;33.30;;;;;;;15.94;100.00;100779.72;5024045;28;20843;-79
2021/09/19 02:49:30;;;;;;;35.13;32.72;;;;;;;15.85;100.00;100780.34;5025939;28;20551;-78
2021/09/19 02:51:57;;;;;;;34.33;32.03;;;;;;;15.74;100.00;100774.00;5023072;28;20116;-82
2021/09/19 02:54:25;;;;;;;34.25;32.00;;;;;;;15.71;100.00;100780.63;5026770;28;20049;-79
2021/09/19 02:56:52;;;;;;;33.97;31.55;;;;;;;15.67;100.00;100782.16;5018851;28;20437;-78
2021/09/19 02:59:19;;;;;;;38.42;35.75;;;;;;;15.83;100.00;100785.97;5023650;28;20053;-79
2021/09/19 03:01:46;;;;;;;35.28;32.78;;;;;;;15.78;100.00;100783.97;5023823;28;20462;-80
2021/09/19 03:04:13;;;;;;;40.22;37.85;;;;;;;15.63;100.00;100789.00;5030108;28;20060;-79
2021/09/19 03:06:40;;;;;;;37.55;35.35;;;;;;;15.69;100.00;100785.41;5025786;28;20064;-79
2021/09/19 03:09:07;;;;;;;37.72;34.92;;;;;;;15.69;100.00;100790.75;5020569;28;20101;-78
2021/09/19 03:11:35;;;;;;;36.13;33.55;;;;;;;15.64;100.00;100789.81;5015219;28;20111;-80
2021/09/19 03:14:02;;;;;;;34.67;32.38;;;;;;;15.58;100.00;100789.72;5023055;28;20045;-79
2021/09/19 03:16:29;;;;;;;38.50;36.00;;;;;;;15.48;100.00;100783.34;5023221;28;20068;-78
2021/09/19 03:18:56;;;;;;;40.30;37.70;;;;;;;15.42;100.00;100785.09;5022693;28;20060;-81
2021/09/19 03:21:22;;;;;;;43.17;40.67;;;;;;;15.28;100.00;100773.03;5021410;28;20061;-79
2021/09/19 03:23:49;;;;;;;36.63;34.25;;;;;;;15.33;100.00;100786.50;5023311;28;20053;-79
2021/09/19 03:26:16;;;;;;;37.05;34.65;;;;;;;15.43;100.00;100775.19;5024813;28;20053;-79
2021/09/19 03:28:44;;;;;;;37.28;34.78;;;;;;;15.32;100.00;100779.53;5024400;28;20061;-79
2021/09/19 03:31:11;;;;;;;36.88;34.58;;;;;;;15.28;100.00;100781.88;5023316;28;20107;-79
2021/09/19 03:33:38;;;;;;;35.30;32.83;;;;;;;15.28;100.00;100778.38;5028693;28;20045;-79
2021/09/19 03:36:05;;;;;;;36.83;34.25;;;;;;;15.14;100.00;100783.19;5024151;28;20050;-79
2021/09/19 03:38:32;;;;;;;36.00;33.50;;;;;;;15.14;100.00;100772.47;5028144;28;20057;-78
2021/09/19 03:40:58;;;;;;;35.55;33.03;;;;;;;15.18;100.00;100778.97;5016917;28;20046;-80
2021/09/19 03:43:25;;;;;;;38.78;36.08;;;;;;;15.16;100.00;100788.28;5021723;28;20058;-79
2021/09/19 03:45:53;;;;;;;34.60;32.20;;;;;;;14.94;100.00;100782.72;5028541;28;20441;-79
2021/09/19 03:48:20;;;;;;;33.90;31.45;;;;;;;14.96;100.00;100773.41;5017966;28;20068;-80
2021/09/19 03:50:47;;;;;;;36.33;33.83;;;;;;;14.90;100.00;100779.69;5021326;28;20119;-80
2021/09/19 03:53:14;;;;;;;36.55;34.15;;;;;;;14.79;100.00;100777.81;5023069;28;20061;-79
2021/09/19 03:55:41;;;;;;;35.38;32.97;;;;;;;14.81;100.00;100776.56;5027167;28;20050;-80
2021/09/19 03:58:07;;;;;;;33.95;31.63;;;;;;;14.80;100.00;100787.50;5028907;28;20449;-79
2021/09/19 04:00:36;;;;;;;33.83;31.30;;;;;;;14.77;100.00;100785.28;5022256;28;20481;-79
2021/09/19 04:03:04;;;;;;;33.30;31.10;;;;;;;14.76;100.00;100780.97;5020458;28;20058;-80
2021/09/19 04:05:31;;;;;;;32.83;30.50;;;;;;;14.80;100.00;100787.50;5027384;28;20114;-78
2021/09/19 04:07:57;;;;;;;37.17;34.75;;;;;;;14.85;100.00;100784.91;5024616;28;20057;-81
2021/09/19 04:10:24;;;;;;;33.10;30.52;;;;;;;14.85;100.00;100777.72;5024607;28;20092;-80
2021/09/19 04:12:51;;;;;;;33.47;31.05;;;;;;;14.84;100.00;100786.78;5024145;28;20057;-79
2021/09/19 04:15:17;;;;;;;35.95;33.33;;;;;;;14.99;100.00;100793.53;5022847;28;20054;-79
2021/09/19 04:17:44;;;;;;;34.67;32.33;;;;;;;14.90;100.00;100803.78;5022109;28;20046;-79
2021/09/19 04:20:13;;;;;;;34.45;32.03;;;;;;;14.74;100.00;100796.44;5024374;28;20053;-79
2021/09/19 04:22:41;;;;;;;34.80;32.28;;;;;;;14.76;100.00;100789.78;5020254;28;20081;-79
2021/09/19 04:25:09;;;;;;;34.00;31.63;;;;;;;14.65;100.00;100804.00;5022297;28;20053;-79
2021/09/19 04:27:37;;;;;;;33.45;31.20;;;;;;;14.61;100.00;100808.97;5024258;28;20497;-79
2021/09/19 04:30:05;;;;;;;35.33;32.85;;;;;;;14.60;100.00;100811.88;5023344;28;20057;-79
2021/09/19 04:32:32;;;;;;;33.20;30.77;;;;;;;14.65;100.00;100815.50;5022371;28;20057;-79
2021/09/19 04:34:58;;;;;;;35.10;32.60;;;;;;;14.55;100.00;100812.53;5029791;28;20462;-79
2021/09/19 04:37:27;;;;;;;35.35;32.80;;;;;;;14.70;100.00;100822.00;5022837;28;20107;-79
2021/09/19 04:39:54;;;;;;;35.97;33.42;;;;;;;14.71;100.00;100826.31;5021380;28;20053;-79
2021/09/19 04:42:22;;;;;;;37.60;34.60;;;;;;;14.75;100.00;100819.44;5017049;28;20470;-80
2021/09/19 04:44:49;;;;;;;35.85;32.88;;;;;;;14.80;100.00;100809.69;5022693;28;20470;-80
2021/09/19 04:47:16;;;;;;;35.33;32.83;;;;;;;14.92;100.00;100820.41;5020331;28;20049;-82
2021/09/19 04:49:43;;;;;;;36.65;33.47;;;;;;;14.89;100.00;100824.34;5023014;28;20053;-79
2021/09/19 04:52:10;;;;;;;34.75;31.95;;;;;;;15.00;100.00;100822.72;5023216;28;20058;-80
2021/09/19 04:54:38;;;;;;;32.33;29.83;;;;;;;15.17;100.00;100833.53;5020509;28;20041;-79
2021/09/19 04:57:05;;;;;;;35.50;33.00;;;;;;;15.10;100.00;100827.50;5021354;28;20065;-78
2021/09/19 04:59:32;;;;;;;36.45;33.38;;;;;;;15.34;100.00;100830.97;5029431;28;20057;-79
2021/09/19 05:01:58;;;;;;;36.08;33.67;;;;;;;15.46;100.00;100829.09;5018286;28;20060;-80
2021/09/19 05:04:25;;;;;;;40.58;37.75;;;;;;;15.51;100.00;100829.19;5023134;28;20045;-80
2021/09/19 05:06:52;;;;;;;34.03;31.77;;;;;;;15.76;100.00;100828.94;5021959;28;20118;-79
2021/09/19 05:09:19;;;;;;;34.75;32.33;;;;;;;15.77;100.00;100821.72;5021270;28;20108;-79
2021/09/19 05:11:47;;;;;;;34.33;31.95;;;;;;;15.80;100.00;100826.59;5029184;28;20450;-79
2021/09/19 05:14:14;;;;;;;32.90;30.50;;;;;;;16.01;100.00;100820.59;5019005;28;20052;-79
2021/09/19 05:16:40;;;;;;;35.42;32.85;;;;;;;16.11;100.00;100828.00;5027829;28;20049;-79
2021/09/19 05:19:07;;;;;;;33.63;30.98;;;;;;;16.30;100.00;100828.59;5023695;28;20056;-79
2021/09/19 05:21:34;;;;;;;31.60;29.45;;;;;;;16.42;100.00;100831.22;5020385;28;20053;-79
2021/09/19 05:24:01;;;;;;;33.53;30.90;;;;;;;16.62;100.00;100823.53;5020136;28;20050;-79
2021/09/19 05:26:28;;;;;;;35.60;33.40;;;;;;;16.69;100.00;100828.72;5021492;28;20053;-80
2021/09/19 05:28:56;;;;;;;31.67;29.58;;;;;;;16.78;100.00;100829.16;5023064;28;20046;-80
2021/09/19 05:31:23;;;;;;;31.20;28.90;;;;;;;17.38;100.00;100820.38;5023205;28;20141;-79
2021/09/19 05:33:50;;;;;;;32.92;30.73;;;;;;;17.12;100.00;100825.38;5013190;28;20479;-79
2021/09/19 05:36:17;;;;;;;34.03;31.90;;;;;;;17.00;100.00;100831.91;5017682;28;20046;-79
2021/09/19 05:38:44;;;;;;;32.97;30.88;;;;;;;17.22;100.00;100822.03;5021650;28;20050;-80
2021/09/19 05:41:10;;;;;;;30.10;27.92;;;;;;;17.73;100.00;100825.38;5029073;28;20460;-80
2021/09/19 05:43:37;;;;;;;34.90;32.60;;;;;;;17.28;100.00;100813.00;5024172;28;20058;-79
2021/09/19 05:46:05;;;;;;;33.03;30.38;;;;;;;17.68;100.00;100816.44;5027423;28;20155;-80
2021/09/19 05:48:32;;;;;;;30.27;28.10;;;;;;;17.54;100.00;100822.19;5017371;28;20045;-80
2021/09/19 05:50:59;;;;;;;32.65;30.35;;;;;;;17.92;100.00;100822.41;5019754;28;20077;-79
2021/09/19 05:53:26;;;;;;;31.10;29.10;;;;;;;17.96;100.00;100813.56;5023996;28;20053;-79
2021/09/19 05:55:53;;;;;;;31.23;28.95;;;;;;;17.67;100.00;100810.28;5029638;28;20112;-79
2021/09/19 05:58:20;;;;;;;29.60;27.35;;;;;;;18.16;100.00;100812.19;5023988;28;20119;-80
2021/09/19 06:00:46;;;;;;;30.08;27.77;;;;;;;17.90;100.00;100809.22;5027119;28;20046;-79
2021/09/19 06:03:14;;;;;;;30.05;27.95;;;;;;;18.07;100.00;100809.13;5022029;28;20196;-79
2021/09/19 06:05:41;;;;;;;29.10;27.00;;;;;;;18.11;100.00;100804.84;5029327;28;20119;-80
2021/09/19 06:08:08;;;;;;;29.95;27.65;;;;;;;18.25;100.00;100799.91;5025841;28;20516;-79
2021/09/19 06:10:35;;;;;;;28.15;26.02;;;;;;;18.60;100.00;100806.63;5030562;28;20437;-79
2021/09/19 06:13:03;;;;;;;28.33;26.15;;;;;;;18.67;100.00;100805.38;5027340;28;20051;-79
2021/09/19 06:15:30;;;;;;;28.35;26.27;;;;;;;18.94;100.00;100807.16;5025639;28;20410;-78
2021/09/19 06:17:57;;;;;;;28.20;26.10;;;;;;;18.72;100.00;100800.00;5030885;28;20053;-79
2021/09/19 06:20:25;;;;;;;27.98;25.88;;;;;;;18.87;100.00;100815.47;5025912;28;20060;-80
2021/09/19 06:22:52;;;;;;;34.45;30.95;;;;;;;18.73;100.00;100808.94;5026679;28;20049;-78
2021/09/19 06:25:18;;;;;;;190.95;101.18;;;;;;;18.72;100.00;100810.75;5027782;28;20049;-79
2021/09/19 06:27:45;;;;;;;172.50;89.07;;;;;;;19.19;100.00;100803.84;5025291;28;20917;-79
2021/09/19 06:30:13;;;;;;;100.95;61.83;;;;;;;19.15;100.00;100797.34;5022132;28;20066;-78
2021/09/19 06:32:40;;;;;;;74.35;45.90;;;;;;;19.28;100.00;100806.84;5028781;28;20057;-79
2021/09/19 06:35:07;;;;;;;45.85;35.72;;;;;;;19.86;100.00;100813.03;5030790;28;20112;-79
2021/09/19 06:37:36;;;;;;;27.20;24.85;;;;;;;19.74;100.00;100809.75;5028145;28;20498;-78
2021/09/19 06:40:04;;;;;;;31.35;28.40;;;;;;;19.55;100.00;100812.91;5029638;28;20445;-79
2021/09/19 06:42:31;;;;;;;26.40;24.33;;;;;;;19.71;100.00;100821.06;5029565;28;20049;-79
2021/09/19 06:44:57;;;;;;;27.33;25.15;;;;;;;19.97;100.00;100820.09;5025460;28;20114;-79
2021/09/19 06:47:24;;;;;;;27.00;25.00;;;;;;;20.14;100.00;100822.53;5024974;28;20111;-79
2021/09/19 06:49:52;;;;;;;26.88;24.88;;;;;;;20.08;100.00;100820.91;5025008;28;20127;-78
2021/09/19 06:52:19;;;;;;;27.02;24.92;;;;;;;20.41;100.00;100816.91;5034400;28;20049;-78
2021/09/19 06:54:47;;;;;;;26.52;24.52;;;;;;;20.46;100.00;100822.31;5028603;28;20049;-80
2021/09/19 06:57:15;;;;;;;27.60;25.50;;;;;;;20.53;100.00;100820.16;5025337;28;20450;-78
2021/09/19 06:59:42;;;;;;;26.75;24.65;;;;;;;20.23;100.00;100829.00;5032888;28;20045;-78
2021/09/19 07:02:08;;;;;;;26.70;24.52;;;;;;;20.19;100.00;100824.44;5026494;28;20062;-78
2021/09/19 07:04:36;;;;;;;26.25;24.25;;;;;;;20.97;100.00;100832.31;5032237;28;20053;-77
2021/09/19 07:07:03;;;;;;;26.90;24.60;;;;;;;19.94;100.00;100827.88;5032270;28;20060;-79
2021/09/19 07:09:30;;;;;;;27.67;25.50;;;;;;;20.34;100.00;100829.84;5021117;28;20116;-81
2021/09/19 07:11:58;;;;;;;27.02;25.10;;;;;;;20.44;100.00;100837.94;5031076;28;20131;-79
2021/09/19 07:14:25;;;;;;;27.90;25.90;;;;;;;20.21;100.00;100836.59;5029985;28;20453;-78
2021/09/19 07:16:52;;;;;;;28.00;26.10;;;;;;;19.78;100.00;100840.50;5023177;28;20052;-79
2021/09/19 07:19:19;;;;;;;27.80;25.65;;;;;;;20.65;100.00;100840.69;5024019;28;20122;-78
2021/09/19 07:21:46;;;;;;;28.25;26.10;;;;;;;20.55;100.00;100839.59;5028335;28;20084;-79
2021/09/19 07:24:13;;;;;;;29.40;27.02;;;;;;;20.55;100.00;100836.91;5030551;28;20064;-77
2021/09/19 07:26:39;;;;;;;27.33;25.27;;;;;;;20.69;97.26;100833.66;5021639;28;20042;-78
2021/09/19 07:29:08;;;;;;;27.35;25.08;;;;;;;21.24;96.64;100832.78;5018583;28;20057;-83
2021/09/19 07:31:35;;;;;;;26.98;24.85;;;;;;;22.03;96.29;100838.44;5024326;28;20062;-77
2021/09/19 07:34:03;;;;;;;28.50;26.60;;;;;;;20.80;94.35;100843.38;5031308;28;20136;-78
2021/09/19 07:36:33;;;;;;;27.85;25.85;;;;;;;21.59;100.00;100836.47;5021929;28;20046;-78
2021/09/19 07:39:02;;;;;;;27.55;25.65;;;;;;;20.94;93.99;100849.84;5022348;28;20119;-78
2021/09/19 07:41:30;;;;;;;27.83;25.83;;;;;;;21.63;92.19;100847.53;5015048;28;20050;-79
2021/09/19 07:43:57;;;;;;;28.98;26.98;;;;;;;21.48;87.31;100860.03;5023600;28;20111;-82
2021/09/19 07:46:26;;;;;;;28.05;26.05;;;;;;;21.00;93.61;100846.06;5023128;28;20118;-79
2021/09/19 07:48:53;;;;;;;26.15;24.40;;;;;;;21.61;87.94;100842.41;5022691;28;20058;-80
2021/09/19 07:51:20;;;;;;;26.20;24.20;;;;;;;21.73;89.68;100842.09;5024623;28;20061;-82
2021/09/19 07:53:48;;;;;;;27.80;25.88;;;;;;;22.04;80.71;100842.75;5024055;28;20395;-80
2021/09/19 07:56:14;;;;;;;27.95;25.58;;;;;;;22.40;86.34;100837.94;5023699;28;20103;-78
2021/09/19 07:58:41;;;;;;;27.52;25.42;;;;;;;22.70;78.38;100827.97;5024061;28;20050;-79
2021/09/19 08:01:08;;;;;;;26.08;24.00;;;;;;;22.32;89.28;100835.00;5022250;28;20472;-80
2021/09/19 08:03:36;;;;;;;25.83;23.63;;;;;;;23.20;73.45;100827.75;5024686;28;20075;-80
2021/09/19 08:06:03;;;;;;;26.40;24.27;;;;;;;22.93;76.48;100825.56;5024046;28;20064;-79
2021/09/19 08:08:30;;;;;;;26.95;24.73;;;;;;;23.22;73.69;100817.44;5023678;28;20052;-79
2021/09/19 08:10:57;;;;;;;28.58;25.80;;;;;;;22.56;73.43;100829.69;5029635;28;20049;-79
2021/09/19 08:13:23;;;;;;;28.27;26.13;;;;;;;22.86;74.00;100813.16;5021342;28;20486;-79
2021/09/19 08:15:50;;;;;;;27.77;25.58;;;;;;;23.12;75.91;100818.38;5021052;28;20495;-79
2021/09/19 08:18:17;;;;;;;29.52;27.20;;;;;;;23.24;73.29;100815.28;5023613;28;20376;-80
2021/09/19 08:20:45;;;;;;;28.42;26.33;;;;;;;23.25;73.62;100822.28;5024571;28;20076;-79
2021/09/19 08:23:12;;;;;;;28.30;26.30;;;;;;;23.90;68.57;100819.06;5023271;28;20057;-81
2021/09/19 08:25:39;;;;;;;27.17;25.27;;;;;;;23.68;64.53;100808.75;5023456;28;20119;-79
2021/09/19 08:28:05;;;;;;;26.23;24.40;;;;;;;23.13;74.67;100802.94;5022116;28;20053;-79
2021/09/19 08:30:32;;;;;;;27.55;25.75;;;;;;;23.95;64.14;100811.66;5021278;28;20061;-80
2021/09/19 08:32:59;;;;;;;28.63;26.55;;;;;;;24.12;61.59;100804.94;5024901;28;20057;-79
2021/09/19 08:35:26;;;;;;;26.67;24.50;;;;;;;24.35;64.21;100787.72;5028825;28;20050;-79
2021/09/19 08:37:54;;;;;;;27.00;24.45;;;;;;;24.79;61.77;100797.31;5022868;28;20058;-82
2021/09/19 08:40:21;;;;;;;28.63;26.27;;;;;;;23.89;60.52;100788.44;5024842;28;20053;-80
2021/09/19 08:42:52;;;;;;;25.65;23.65;;;;;;;24.29;56.23;100790.81;5024440;28;20478;-79
2021/09/19 08:45:19;;;;;;;31.02;28.65;;;;;;;25.06;54.50;100793.03;5023405;28;20054;-79
2021/09/19 08:47:46;;;;;;;29.95;27.65;;;;;;;24.91;57.16;100780.53;5022923;28;20045;-80
2021/09/19 08:50:13;;;;;;;26.83;24.77;;;;;;;24.43;50.71;100778.94;5023555;28;20057;-79
2021/09/19 08:52:40;;;;;;;26.73;24.55;;;;;;;24.29;61.22;100780.75;5021781;28;20046;-77
2021/09/19 08:55:10;;;;;;;25.90;23.70;;;;;;;24.48;56.09;100769.09;5022449;28;20445;-79
2021/09/19 08:57:38;;;;;;;24.75;22.90;;;;;;;24.54;59.91;100766.00;5021481;28;20111;-78
2021/09/19 09:00:09;;;;;;;26.90;24.80;;;;;;;24.71;52.12;100765.41;5024467;28;20056;-79
2021/09/19 09:02:48;;;;;;;26.42;24.02;;;;;;;24.87;53.37;100779.50;5020367;28;20062;-80
2021/09/19 09:05:19;;;;;;;25.42;23.42;;;;;;;25.07;52.32;100779.13;5029633;28;20088;-78
2021/09/19 09:07:46;;;;;;;25.35;23.35;;;;;;;25.22;48.04;100778.06;5021613;28;20524;-78
2021/09/19 09:10:14;;;;;;;24.55;22.30;;;;;;;25.75;50.35;100771.22;5024218;28;20056;-78
2021/09/19 09:12:41;;;;;;;24.73;22.85;;;;;;;25.49;47.13;100776.44;5025512;28;20057;-79
2021/09/19 09:15:09;;;;;;;28.35;26.25;;;;;;;25.20;48.16;100769.38;5023291;28;20068;-78
2021/09/19 09:17:35;;;;;;;28.25;25.80;;;;;;;25.02;55.16;100764.84;5022771;28;20083;-79
2021/09/19 09:20:04;;;;;;;26.67;24.63;;;;;;;26.36;47.96;100771.75;5021894;28;20054;-79
2021/09/19 09:22:35;;;;;;;26.80;24.48;;;;;;;25.62;47.44;100769.34;5020839;28;20103;-80
2021/09/19 09:25:10;;;;;;;26.00;23.90;;;;;;;25.77;46.11;100767.09;5021542;28;20080;-79
2021/09/19 09:27:41;;;;;;;25.23;23.30;;;;;;;25.47;48.94;100767.75;5026580;28;20061;-79
2021/09/19 09:30:17;;;;;;;26.95;24.63;;;;;;;26.57;42.79;100769.34;5026171;28;20065;-78
2021/09/19 09:32:56;;;;;;;26.65;24.65;;;;;;;26.32;49.47;100759.84;5027202;28;20135;-78
2021/09/19 09:35:24;;;;;;;25.77;23.70;;;;;;;25.67;49.28;100761.88;5032061;28;20058;-79
2021/09/19 09:37:51;;;;;;;26.27;24.48;;;;;;;25.55;49.84;100761.63;5025599;28;20053;-80
2021/09/19 09:40:19;;;;;;;27.05;25.00;;;;;;;26.48;42.40;100755.63;5027887;28;20049;-79
2021/09/19 09:43:08;;;;;;;26.50;24.45;;;;;;;26.83;41.76;100747.66;5027772;28;20112;-78
2021/09/19 09:45:36;;;;;;;28.48;26.23;;;;;;;26.39;48.51;100752.84;5026025;28;20446;-78
2021/09/19 09:48:05;;;;;;;30.27;27.70;;;;;;;25.15;44.67;100753.22;5030917;28;20053;-80
2021/09/19 09:50:32;;;;;;;29.75;27.45;;;;;;;25.55;43.65;100748.81;5025114;28;20433;-78
2021/09/19 09:53:12;;;;;;;29.35;27.10;;;;;;;25.94;42.60;100743.91;5025364;28;20132;-80
2021/09/19 09:55:44;;;;;;;29.50;27.05;;;;;;;26.44;40.18;100755.44;5025184;28;20145;-79
2021/09/19 09:58:15;;;;;;;27.40;25.27;;;;;;;25.90;42.08;100748.34;5024830;28;20136;-79
2021/09/19 10:00:42;;;;;;;28.80;26.50;;;;;;;26.39;45.54;100752.84;5027133;28;20478;-80
2021/09/19 10:03:09;;;;;;;25.73;23.65;;;;;;;26.70;43.81;100750.16;5022558;28;20050;-83
2021/09/19 10:05:36;;;;;;;27.25;24.95;;;;;;;25.53;52.50;100742.06;5030094;28;20071;-79
2021/09/19 10:08:03;;;;;;;28.25;25.83;;;;;;;26.01;45.62;100750.50;5030436;28;20052;-80
2021/09/19 10:10:38;;;;;;;32.60;29.52;;;;;;;25.44;47.38;100746.63;5026658;28;20054;-78
2021/09/19 10:13:05;;;;;;;33.50;30.38;;;;;;;26.60;41.99;100738.75;5025991;28;20107;-78
2021/09/19 10:15:35;;;;;;;31.83;29.20;;;;;;;26.66;45.99;100741.00;5025402;28;20042;-78
2021/09/19 10:18:03;;;;;;;28.30;25.92;;;;;;;26.15;45.97;100733.34;5025608;28;20056;-80
2021/09/19 10:20:36;;;;;;;29.20;26.70;;;;;;;26.34;40.01;100746.72;5025716;28;20126;-79
2021/09/19 10:23:06;;;;;;;26.67;24.48;;;;;;;26.94;41.95;100738.88;5025405;28;20060;-79
2021/09/19 10:25:40;;;;;;;29.67;27.10;;;;;;;27.41;40.99;100713.81;5023674;28;20038;-79
2021/09/19 10:28:27;;;;;;;30.38;27.40;;;;;;;27.86;38.97;100721.72;5023668;28;20057;-80
2021/09/19 10:31:18;;;;;;;27.33;25.23;;;;;;;26.99;44.92;100727.03;5023431;28;20123;-81
2021/09/19 10:33:48;;;;;;;29.85;27.42;;;;;;;27.92;39.70;100725.91;5028229;28;20474;-79
2021/09/19 10:36:27;;;;;;;27.88;25.67;;;;;;;27.94;39.72;100722.84;5023813;28;20061;-79
2021/09/19 10:39:11;;;;;;;27.00;24.63;;;;;;;27.96;41.58;100705.03;5019980;28;20474;-79
2021/09/19 10:41:58;;;;;;;26.45;24.45;;;;;;;26.84;42.13;100711.94;5016586;28;20387;-81
2021/09/19 10:44:33;;;;;;;27.30;25.20;;;;;;;25.94;48.70;100703.09;5022685;28;20046;-79
2021/09/19 10:47:06;;;;;;;27.25;25.05;;;;;;;25.92;49.74;100691.72;5023063;28;20049;-79
2021/09/19 10:49:34;;;;;;;27.50;25.20;;;;;;;26.72;42.66;100700.81;5026663;28;20449;-79
2021/09/19 10:52:08;;;;;;;28.23;25.92;;;;;;;26.79;48.00;100703.88;5023626;28;20077;-79
2021/09/19 10:54:47;;;;;;;31.00;28.30;;;;;;;27.74;37.30;100688.81;5022983;28;20137;-78
2021/09/19 10:57:19;;;;;;;26.88;24.73;;;;;;;27.85;40.80;100677.28;5022898;28;20057;-79
2021/09/19 11:00:13;;;;;;;28.70;26.50;;;;;;;26.30;48.75;100672.25;5023004;28;20077;-78
2021/09/19 11:02:43;;;;;;;27.85;25.58;;;;;;;26.40;42.93;100680.16;5022822;28;20490;-80
2021/09/19 11:05:23;;;;;;;27.23;25.08;;;;;;;27.80;42.49;100665.72;5031772;28;20061;-80
2021/09/19 11:07:50;;;;;;;27.20;24.67;;;;;;;27.92;34.68;100657.66;5023907;28;20453;-79
2021/09/19 11:10:18;;;;;;;26.77;24.33;;;;;;;28.12;41.31;100661.66;5026005;28;20452;-79
2021/09/19 11:12:46;;;;;;;27.33;25.13;;;;;;;26.79;45.98;100657.56;5026290;28;20556;-80